aviador You're here:

DTTL Decoded Metar

KELIBIA in TUNISIA
Report Time2018-01-19 16:00:00
UTC Time2018-01-19 16:52:59
Flight Rules vfr VFR
Wind190° at 03 kt
W.Rank190° ranks 20
Current wind is below 190° avg. (4.9)
Visibility9999 m
Phenomena:N/A
Clouds:N/A
Expected CloudBase > 1,600 ft AGL from Temp-Dew spread
CeilingNone
Temp14°C (ISA -1)
Dew Point10°C (77% RH)
AAT13.0°C
QNH1015 hPa
Density Alt102 ft
Elevation98 ft
Report Wrong Elevation
Raw Report
DTTL 191600Z 19003KT 160V240 CAVOK 14/10 Q1015=

Extra information for DTTL:More info

Metar Taf Metar & Taf Last 4 Metars F.Rules Stats Wind Profile Meteogram Temp Stats Airport Information Weather charts Add Link Nearby VenuesMetar ALERT Operation Metar Decoded Social comments